Mn Pelican — FMLR — position and weather

sailwx.info

Track history (hours):
 
Tides and Currents Weather Stations Pressure Air Temp Water Temp Dewpoint Dewpoint Depression Visibility Wind Speed Wind Dir Waves Ship Positions

Mn Pelican

Last reported at 2017-Jan-24 03:25 UTC. Time now 2017-Jan-24 07:10 UTC.
Position N 47°34' W 005°27'.

Length 155 m; draft 6.1 m.

Type: Ship. MMSI: 228315700.

Date/timePositionNaut miles runAvg speedWind from/ knotsBaromVisibWave heightAir tempDewpointWater temp
2017-Jan-24 03:25N 47°34' W 005°27'  
2017-Jan-21 22:07N 49°52' W 003°36'814.8
2017-Jan-21 21:33N 49°57' W 003°26'1515.2
2017-Jan-21 20:33N 50°05' W 003°06'1615.6
2017-Jan-21 19:33N 50°13' W 002°45'3315.2
2017-Jan-21 17:23N 50°29' W 001°60'1012.6
2017-Jan-21 16:33N 50°39' W 001°55'4 4.4
2017-Jan-21 15:33N 50°42' W 001°59'0 0.0
2017-Jan-21 14:31N 50°42' W 001°59'0 0.0
2017-Jan-21 13:33N 50°42' W 001°59'0 0.0
2017-Jan-21 12:33N 50°42' W 001°59'0 0.0
2017-Jan-21 11:29N 50°42' W 001°59'0 0.0
2017-Jan-21 10:32N 50°42' W 001°59'0 0.1
2017-Jan-21 09:33N 50°42' W 001°60'9 8.6
2017-Jan-21 08:33N 50°35' W 001°53'12012.9
2017-Jan-20 23:13N 49°19' W 004°18'11812.2
2017-Jan-20 13:33N 47°29' W 005°25'  
2017-Jan-18 06:31N 49°44' W 003°56'1515.8
2017-Jan-18 05:33N 49°52' W 003°37'1616.6
2017-Jan-18 04:33N 50°02' W 003°16'1716.6
2017-Jan-18 03:33N 50°09' W 002°53'1615.8
2017-Jan-18 02:33N 50°17' W 002°31'2813.8
2017-Jan-18 00:34N 50°33' W 001°55'10 9.8
2017-Jan-17 23:33N 50°42' W 001°59'1 0.5
2017-Jan-17 22:33N 50°42' W 001°59'0 0.0
2017-Jan-17 21:32N 50°42' W 001°59'0 0.0
2017-Jan-17 20:29N 50°42' W 001°59'0 0.1
2017-Jan-17 19:33N 50°42' W 001°59'6 5.5
2017-Jan-17 18:34N 50°38' W 001°54'17116.3
2017-Jan-17 08:06N 48°54' W 005°24'  
2017-Jan-14 17:29N 50°30' W 001°59'1112.4
2017-Jan-14 16:34N 50°41' W 001°57'2 2.0
2017-Jan-14 15:33N 50°42' W 001°59'0 0.0
2017-Jan-14 14:32N 50°42' W 001°59'0 0.0
2017-Jan-14 13:32N 50°42' W 001°59'0 0.0
2017-Jan-14 12:32N 50°42' W 001°59'0 0.0
2017-Jan-14 11:31N 50°42' W 001°59'0 0.0
2017-Jan-14 10:31N 50°42' W 001°59'0 0.1
2017-Jan-14 09:33N 50°42' W 001°59'1110.7
2017-Jan-14 08:34N 50°32' W 001°53'1917.9
2017-Jan-14 07:31N 50°14' W 001°56'  
Track history (hours):
 
Tides and Currents Weather Stations Pressure Air Temp Water Temp Dewpoint Dewpoint Depression Visibility Wind Speed Wind Dir Waves Ship Positions

Mn Pelican

Last reported at 2017-Jan-24 03:25 UTC. Time now 2017-Jan-24 07:10 UTC.
Position N 47°34' W 005°27'.

Length 155 m; draft 6.1 m.

Type: Ship. MMSI: 228315700.

Date/timePositionNaut miles runAvg speedWind from/ knotsBaromVisibWave heightAir tempDewpointWater temp
2017-Jan-24 03:25N 47°34' W 005°27'  
2017-Jan-21 22:07N 49°52' W 003°36'814.8
2017-Jan-21 21:33N 49°57' W 003°26'1515.2
2017-Jan-21 20:33N 50°05' W 003°06'1615.6
2017-Jan-21 19:33N 50°13' W 002°45'3315.2
2017-Jan-21 17:23N 50°29' W 001°60'1012.6
2017-Jan-21 16:33N 50°39' W 001°55'4 4.4
2017-Jan-21 15:33N 50°42' W 001°59'0 0.0
2017-Jan-21 14:31N 50°42' W 001°59'0 0.0
2017-Jan-21 13:33N 50°42' W 001°59'0 0.0
2017-Jan-21 12:33N 50°42' W 001°59'0 0.0
2017-Jan-21 11:29N 50°42' W 001°59'0 0.0
2017-Jan-21 10:32N 50°42' W 001°59'0 0.1
2017-Jan-21 09:33N 50°42' W 001°60'9 8.6
2017-Jan-21 08:33N 50°35' W 001°53'12012.9
2017-Jan-20 23:13N 49°19' W 004°18'11812.2
2017-Jan-20 13:33N 47°29' W 005°25'  
2017-Jan-18 06:31N 49°44' W 003°56'1515.8
2017-Jan-18 05:33N 49°52' W 003°37'1616.6
2017-Jan-18 04:33N 50°02' W 003°16'1716.6
2017-Jan-18 03:33N 50°09' W 002°53'1615.8
2017-Jan-18 02:33N 50°17' W 002°31'2813.8
2017-Jan-18 00:34N 50°33' W 001°55'10 9.8
2017-Jan-17 23:33N 50°42' W 001°59'1 0.5
2017-Jan-17 22:33N 50°42' W 001°59'0 0.0
2017-Jan-17 21:32N 50°42' W 001°59'0 0.0
2017-Jan-17 20:29N 50°42' W 001°59'0 0.1
2017-Jan-17 19:33N 50°42' W 001°59'6 5.5
2017-Jan-17 18:34N 50°38' W 001°54'17116.3
2017-Jan-17 08:06N 48°54' W 005°24'  
2017-Jan-14 17:29N 50°30' W 001°59'1112.4
2017-Jan-14 16:34N 50°41' W 001°57'2 2.0
2017-Jan-14 15:33N 50°42' W 001°59'0 0.0
2017-Jan-14 14:32N 50°42' W 001°59'0 0.0
2017-Jan-14 13:32N 50°42' W 001°59'0 0.0
2017-Jan-14 12:32N 50°42' W 001°59'0 0.0
2017-Jan-14 11:31N 50°42' W 001°59'0 0.0
2017-Jan-14 10:31N 50°42' W 001°59'0 0.1
2017-Jan-14 09:33N 50°42' W 001°59'1110.7
2017-Jan-14 08:34N 50°32' W 001°53'1917.9
2017-Jan-14 07:31N 50°14' W 001°56'  

Dump ship's entire track history